sensor_id;sensor_type;location;lat;lon;timestamp;pressure;altitude;pressure_sealevel;temperature
67353;BMP180;54238;52.278;21.056;2022-11-15T00:01:48;100862.80;;;7.00
67353;BMP180;54238;52.278;21.056;2022-11-15T00:04:19;100856.40;;;7.00
67353;BMP180;54238;52.278;21.056;2022-11-15T00:06:49;100845.00;;;6.90
67353;BMP180;54238;52.278;21.056;2022-11-15T00:09:21;100845.60;;;6.92
67353;BMP180;54238;52.278;21.056;2022-11-15T00:11:51;100845.20;;;6.94
67353;BMP180;54238;52.278;21.056;2022-11-15T00:14:20;100833.00;;;6.90
67353;BMP180;54238;52.278;21.056;2022-11-15T00:16:50;100831.00;;;6.90
67353;BMP180;54238;52.278;21.056;2022-11-15T00:19:28;100830.60;;;6.90
67353;BMP180;54238;52.278;21.056;2022-11-15T00:21:55;100832.40;;;6.94
67353;BMP180;54238;52.278;21.056;2022-11-15T00:24:21;100831.00;;;6.90
67353;BMP180;54238;52.278;21.056;2022-11-15T00:27:27;100821.60;;;6.90
67353;BMP180;54238;52.278;21.056;2022-11-15T00:29:54;100819.00;;;6.90
67353;BMP180;54238;52.278;21.056;2022-11-15T00:32:25;100810.20;;;6.82
67353;BMP180;54238;52.278;21.056;2022-11-15T00:35:04;100805.20;;;6.80
67353;BMP180;54238;52.278;21.056;2022-11-15T00:37:36;100803.00;;;6.90
67353;BMP180;54238;52.278;21.056;2022-11-15T00:40:14;100800.00;;;6.90
67353;BMP180;54238;52.278;21.056;2022-11-15T00:42:46;100797.00;;;6.90
67353;BMP180;54238;52.278;21.056;2022-11-15T00:45:18;100793.40;;;6.90
67353;BMP180;54238;52.278;21.056;2022-11-15T00:47:48;100787.40;;;6.90
67353;BMP180;54238;52.278;21.056;2022-11-15T00:53:11;100780.00;;;7.00
67353;BMP180;54238;52.278;21.056;2022-11-15T00:55:41;100778.80;;;7.00
67353;BMP180;54238;52.278;21.056;2022-11-15T00:58:12;100777.80;;;7.00
67353;BMP180;54238;52.278;21.056;2022-11-15T01:00:47;100773.80;;;7.00
67353;BMP180;54238;52.278;21.056;2022-11-15T01:03:17;100768.00;;;6.98
67353;BMP180;54238;52.278;21.056;2022-11-15T01:08:46;100758.80;;;6.98
67353;BMP180;54238;52.278;21.056;2022-11-15T01:11:13;100751.40;;;6.96
67353;BMP180;54238;52.278;21.056;2022-11-15T01:13:42;100751.20;;;6.90
67353;BMP180;54238;52.278;21.056;2022-11-15T01:16:17;100746.80;;;6.90
67353;BMP180;54238;52.278;21.056;2022-11-15T01:18:48;100741.20;;;7.00
67353;BMP180;54238;52.278;21.056;2022-11-15T01:21:42;100745.40;;;6.90
67353;BMP180;54238;52.278;21.056;2022-11-15T01:24:12;100735.60;;;6.92
67353;BMP180;54238;52.278;21.056;2022-11-15T01:26:43;100735.80;;;7.00
67353;BMP180;54238;52.278;21.056;2022-11-15T01:29:10;100729.80;;;7.00
67353;BMP180;54238;52.278;21.056;2022-11-15T01:31:42;100725.00;;;7.00
67353;BMP180;54238;52.278;21.056;2022-11-15T01:34:09;100722.40;;;7.00
67353;BMP180;54238;52.278;21.056;2022-11-15T01:36:51;100721.60;;;7.00
67353;BMP180;54238;52.278;21.056;2022-11-15T01:39:23;100713.80;;;7.00
67353;BMP180;54238;52.278;21.056;2022-11-15T01:42:00;100704.60;;;7.00
67353;BMP180;54238;52.278;21.056;2022-11-15T01:47:40;100718.80;;;7.00
67353;BMP180;54238;52.278;21.056;2022-11-15T01:50:16;100701.60;;;6.90
67353;BMP180;54238;52.278;21.056;2022-11-15T01:52:46;100700.80;;;6.90
67353;BMP180;54238;52.278;21.056;2022-11-15T01:55:24;100708.80;;;6.90
67353;BMP180;54238;52.278;21.056;2022-11-15T01:58:02;100696.20;;;6.84
67353;BMP180;54238;52.278;21.056;2022-11-15T02:00:36;100697.80;;;6.80
67353;BMP180;54238;52.278;21.056;2022-11-15T02:03:06;100696.20;;;6.80
67353;BMP180;54238;52.278;21.056;2022-11-15T02:05:37;100692.80;;;6.80
67353;BMP180;54238;52.278;21.056;2022-11-15T02:08:05;100683.40;;;6.80
67353;BMP180;54238;52.278;21.056;2022-11-15T02:10:32;100687.60;;;6.80
67353;BMP180;54238;52.278;21.056;2022-11-15T02:13:02;100680.80;;;6.80
67353;BMP180;54238;52.278;21.056;2022-11-15T02:15:44;100683.20;;;6.82
67353;BMP180;54238;52.278;21.056;2022-11-15T02:18:28;100678.00;;;6.80
67353;BMP180;54238;52.278;21.056;2022-11-15T02:21:11;100679.20;;;6.80
67353;BMP180;54238;52.278;21.056;2022-11-15T02:27:08;100676.00;;;6.80
67353;BMP180;54238;52.278;21.056;2022-11-15T02:29:58;100671.00;;;6.80
67353;BMP180;54238;52.278;21.056;2022-11-15T02:41:40;100660.40;;;6.90
67353;BMP180;54238;52.278;21.056;2022-11-15T02:44:24;100655.40;;;6.88
67353;BMP180;54238;52.278;21.056;2022-11-15T02:47:04;100660.80;;;6.84
67353;BMP180;54238;52.278;21.056;2022-11-15T02:49:52;100659.40;;;6.80
67353;BMP180;54238;52.278;21.056;2022-11-15T02:52:25;100654.80;;;6.80
67353;BMP180;54238;52.278;21.056;2022-11-15T02:54:59;100650.00;;;6.80
67353;BMP180;54238;52.278;21.056;2022-11-15T02:57:55;100644.40;;;6.80
67353;BMP180;54238;52.278;21.056;2022-11-15T03:00:35;100635.20;;;6.80
67353;BMP180;54238;52.278;21.056;2022-11-15T03:06:38;100631.80;;;6.80
67353;BMP180;54238;52.278;21.056;2022-11-15T03:12:33;100634.80;;;6.80
67353;BMP180;54238;52.278;21.056;2022-11-15T03:15:21;100629.20;;;6.80
67353;BMP180;54238;52.278;21.056;2022-11-15T03:17:59;100618.80;;;6.80
67353;BMP180;54238;52.278;21.056;2022-11-15T03:20:29;100611.80;;;6.80
67353;BMP180;54238;52.278;21.056;2022-11-15T03:23:05;100613.60;;;6.80
67353;BMP180;54238;52.278;21.056;2022-11-15T03:25:42;100608.20;;;6.70
67353;BMP180;54238;52.278;21.056;2022-11-15T03:28:25;100604.60;;;6.70
67353;BMP180;54238;52.278;21.056;2022-11-15T03:30:58;100604.40;;;6.66
67353;BMP180;54238;52.278;21.056;2022-11-15T03:33:29;100595.60;;;6.62
67353;BMP180;54238;52.278;21.056;2022-11-15T03:35:59;100592.40;;;6.60
67353;BMP180;54238;52.278;21.056;2022-11-15T03:38:31;100591.40;;;6.60
67353;BMP180;54238;52.278;21.056;2022-11-15T03:41:05;100580.80;;;6.60
67353;BMP180;54238;52.278;21.056;2022-11-15T03:47:03;100575.20;;;6.64
67353;BMP180;54238;52.278;21.056;2022-11-15T03:49:44;100571.00;;;6.60
67353;BMP180;54238;52.278;21.056;2022-11-15T03:52:20;100572.40;;;6.62
67353;BMP180;54238;52.278;21.056;2022-11-15T03:54:55;100563.80;;;6.66
67353;BMP180;54238;52.278;21.056;2022-11-15T03:57:25;100563.00;;;6.70
67353;BMP180;54238;52.278;21.056;2022-11-15T03:59:53;100563.40;;;6.70
67353;BMP180;54238;52.278;21.056;2022-11-15T04:02:20;100562.60;;;6.70
67353;BMP180;54238;52.278;21.056;2022-11-15T04:04:49;100560.80;;;6.70
67353;BMP180;54238;52.278;21.056;2022-11-15T04:07:19;100562.40;;;6.70
67353;BMP180;54238;52.278;21.056;2022-11-15T04:09:47;100560.60;;;6.64
67353;BMP180;54238;52.278;21.056;2022-11-15T04:15:06;100548.80;;;6.62
67353;BMP180;54238;52.278;21.056;2022-11-15T04:17:55;100547.60;;;6.70
67353;BMP180;54238;52.278;21.056;2022-11-15T04:20:28;100542.80;;;6.70
67353;BMP180;54238;52.278;21.056;2022-11-15T04:23:22;100539.20;;;6.70
67353;BMP180;54238;52.278;21.056;2022-11-15T04:26:21;100528.80;;;6.70
67353;BMP180;54238;52.278;21.056;2022-11-15T04:28:49;100536.60;;;6.70
67353;BMP180;54238;52.278;21.056;2022-11-15T04:31:37;100534.20;;;6.70
67353;BMP180;54238;52.278;21.056;2022-11-15T04:34:15;100532.60;;;6.70
67353;BMP180;54238;52.278;21.056;2022-11-15T04:36:44;100528.60;;;6.80
67353;BMP180;54238;52.278;21.056;2022-11-15T04:39:49;100524.80;;;6.80
67353;BMP180;54238;52.278;21.056;2022-11-15T04:42:20;100536.00;;;6.80
67353;BMP180;54238;52.278;21.056;2022-11-15T04:44:49;100528.60;;;6.80
67353;BMP180;54238;52.278;21.056;2022-11-15T04:47:25;100527.40;;;6.80
67353;BMP180;54238;52.278;21.056;2022-11-15T04:49:56;100526.20;;;6.80
67353;BMP180;54238;52.278;21.056;2022-11-15T04:55:17;100520.00;;;6.72
67353;BMP180;54238;52.278;21.056;2022-11-15T04:57:47;100522.20;;;6.70
67353;BMP180;54238;52.278;21.056;2022-11-15T05:00:16;100521.60;;;6.76
67353;BMP180;54238;52.278;21.056;2022-11-15T05:02:48;100527.40;;;6.80
67353;BMP180;54238;52.278;21.056;2022-11-15T05:05:38;100522.60;;;6.80
67353;BMP180;54238;52.278;21.056;2022-11-15T05:08:07;100520.00;;;6.80
67353;BMP180;54238;52.278;21.056;2022-11-15T05:10:36;100516.80;;;6.78
67353;BMP180;54238;52.278;21.056;2022-11-15T05:13:08;100513.40;;;6.70
67353;BMP180;54238;52.278;21.056;2022-11-15T05:15:37;100510.80;;;6.72
67353;BMP180;54238;52.278;21.056;2022-11-15T05:18:14;100512.20;;;6.72
67353;BMP180;54238;52.278;21.056;2022-11-15T05:20:41;100504.00;;;6.70
67353;BMP180;54238;52.278;21.056;2022-11-15T05:23:08;100503.40;;;6.70
67353;BMP180;54238;52.278;21.056;2022-11-15T05:25:45;100508.40;;;6.74
67353;BMP180;54238;52.278;21.056;2022-11-15T05:28:12;100508.00;;;6.80
67353;BMP180;54238;52.278;21.056;2022-11-15T05:30:44;100506.80;;;6.80
67353;BMP180;54238;52.278;21.056;2022-11-15T05:33:14;100510.40;;;6.80
67353;BMP180;54238;52.278;21.056;2022-11-15T05:35:50;100509.40;;;6.80
67353;BMP180;54238;52.278;21.056;2022-11-15T05:38:19;100510.60;;;6.80
67353;BMP180;54238;52.278;21.056;2022-11-15T05:40:51;100507.60;;;6.80
67353;BMP180;54238;52.278;21.056;2022-11-15T05:43:18;100500.40;;;6.80
67353;BMP180;54238;52.278;21.056;2022-11-15T05:45:50;100502.40;;;6.80
67353;BMP180;54238;52.278;21.056;2022-11-15T05:48:18;100506.60;;;6.80
67353;BMP180;54238;52.278;21.056;2022-11-15T05:50:49;100505.20;;;6.80
67353;BMP180;54238;52.278;21.056;2022-11-15T05:53:19;100500.20;;;6.80
67353;BMP180;54238;52.278;21.056;2022-11-15T05:55:51;100500.00;;;6.70
67353;BMP180;54238;52.278;21.056;2022-11-15T05:58:20;100500.00;;;6.70
67353;BMP180;54238;52.278;21.056;2022-11-15T06:00:49;100494.00;;;6.70
67353;BMP180;54238;52.278;21.056;2022-11-15T06:03:17;100492.60;;;6.70
67353;BMP180;54238;52.278;21.056;2022-11-15T06:05:43;100491.00;;;6.68
67353;BMP180;54238;52.278;21.056;2022-11-15T06:08:13;100491.00;;;6.60
67353;BMP180;54238;52.278;21.056;2022-11-15T06:10:42;100490.80;;;6.64
67353;BMP180;54238;52.278;21.056;2022-11-15T06:13:11;100492.80;;;6.64
67353;BMP180;54238;52.278;21.056;2022-11-15T06:15:43;100490.80;;;6.60
67353;BMP180;54238;52.278;21.056;2022-11-15T06:18:10;100492.80;;;6.60
67353;BMP180;54238;52.278;21.056;2022-11-15T06:20:39;100492.00;;;6.60
67353;BMP180;54238;52.278;21.056;2022-11-15T06:23:06;100501.80;;;6.60
67353;BMP180;54238;52.278;21.056;2022-11-15T06:25:35;100504.40;;;6.60
67353;BMP180;54238;52.278;21.056;2022-11-15T06:28:02;100508.00;;;6.60
67353;BMP180;54238;52.278;21.056;2022-11-15T06:30:32;100509.00;;;6.60
67353;BMP180;54238;52.278;21.056;2022-11-15T06:33:04;100503.00;;;6.60
67353;BMP180;54238;52.278;21.056;2022-11-15T06:35:34;100499.00;;;6.60
67353;BMP180;54238;52.278;21.056;2022-11-15T06:38:11;100498.40;;;6.68
67353;BMP180;54238;52.278;21.056;2022-11-15T06:40:38;100494.80;;;6.68
67353;BMP180;54238;52.278;21.056;2022-11-15T06:43:08;100497.60;;;6.70
67353;BMP180;54238;52.278;21.056;2022-11-15T06:45:40;100499.80;;;6.68
67353;BMP180;54238;52.278;21.056;2022-11-15T06:48:11;100502.40;;;6.70
67353;BMP180;54238;52.278;21.056;2022-11-15T06:50:40;100507.40;;;6.70
67353;BMP180;54238;52.278;21.056;2022-11-15T06:53:08;100503.80;;;6.70
67353;BMP180;54238;52.278;21.056;2022-11-15T06:55:37;100507.00;;;6.64
67353;BMP180;54238;52.278;21.056;2022-11-15T06:58:07;100514.80;;;6.64
67353;BMP180;54238;52.278;21.056;2022-11-15T07:00:34;100516.20;;;6.60
67353;BMP180;54238;52.278;21.056;2022-11-15T07:03:03;100519.00;;;6.60
67353;BMP180;54238;52.278;21.056;2022-11-15T07:05:33;100519.60;;;6.60
67353;BMP180;54238;52.278;21.056;2022-11-15T07:08:08;100515.00;;;6.56
67353;BMP180;54238;52.278;21.056;2022-11-15T07:10:36;100509.20;;;6.56
67353;BMP180;54238;52.278;21.056;2022-11-15T07:13:03;100509.00;;;6.60
67353;BMP180;54238;52.278;21.056;2022-11-15T07:15:30;100508.20;;;6.52
67353;BMP180;54238;52.278;21.056;2022-11-15T07:18:03;100509.20;;;6.50
67353;BMP180;54238;52.278;21.056;2022-11-15T07:20:33;100515.40;;;6.50
67353;BMP180;54238;52.278;21.056;2022-11-15T07:23:04;100515.60;;;6.54
67353;BMP180;54238;52.278;21.056;2022-11-15T07:25:36;100514.80;;;6.58
67353;BMP180;54238;52.278;21.056;2022-11-15T07:28:04;100513.00;;;6.50
67353;BMP180;54238;52.278;21.056;2022-11-15T07:30:31;100507.40;;;6.50
67353;BMP180;54238;52.278;21.056;2022-11-15T07:33:01;100508.20;;;6.50
67353;BMP180;54238;52.278;21.056;2022-11-15T07:35:29;100516.40;;;6.60
67353;BMP180;54238;52.278;21.056;2022-11-15T07:38:04;100510.60;;;6.50
67353;BMP180;54238;52.278;21.056;2022-11-15T07:40:32;100505.60;;;6.50
67353;BMP180;54238;52.278;21.056;2022-11-15T07:43:04;100503.00;;;6.40
67353;BMP180;54238;52.278;21.056;2022-11-15T07:45:32;100504.60;;;6.40
67353;BMP180;54238;52.278;21.056;2022-11-15T07:48:03;100504.00;;;6.40
67353;BMP180;54238;52.278;21.056;2022-11-15T07:50:40;100511.80;;;6.40
67353;BMP180;54238;52.278;21.056;2022-11-15T07:53:12;100509.60;;;6.40
67353;BMP180;54238;52.278;21.056;2022-11-15T07:55:41;100503.80;;;6.40
67353;BMP180;54238;52.278;21.056;2022-11-15T07:58:10;100503.60;;;6.30
67353;BMP180;54238;52.278;21.056;2022-11-15T08:00:40;100495.60;;;6.20
67353;BMP180;54238;52.278;21.056;2022-11-15T08:03:12;100489.80;;;6.20
67353;BMP180;54238;52.278;21.056;2022-11-15T08:05:43;100484.80;;;6.20
67353;BMP180;54238;52.278;21.056;2022-11-15T08:08:15;100484.00;;;6.18
67353;BMP180;54238;52.278;21.056;2022-11-15T08:10:44;100477.60;;;6.16
67353;BMP180;54238;52.278;21.056;2022-11-15T08:13:12;100470.80;;;6.20
67353;BMP180;54238;52.278;21.056;2022-11-15T08:15:43;100466.80;;;6.20
67353;BMP180;54238;52.278;21.056;2022-11-15T08:18:14;100468.00;;;6.30
67353;BMP180;54238;52.278;21.056;2022-11-15T08:20:44;100468.60;;;6.40
67353;BMP180;54238;52.278;21.056;2022-11-15T08:23:12;100463.40;;;6.40
67353;BMP180;54238;52.278;21.056;2022-11-15T08:25:40;100463.60;;;6.40
67353;BMP180;54238;52.278;21.056;2022-11-15T08:28:09;100456.00;;;6.40
67353;BMP180;54238;52.278;21.056;2022-11-15T08:30:40;100457.80;;;6.50
67353;BMP180;54238;52.278;21.056;2022-11-15T08:33:13;100460.40;;;6.54
67353;BMP180;54238;52.278;21.056;2022-11-15T08:35:43;100463.20;;;6.60
67353;BMP180;54238;52.278;21.056;2022-11-15T08:38:11;100461.20;;;6.68
67353;BMP180;54238;52.278;21.056;2022-11-15T08:40:38;100461.60;;;6.70
67353;BMP180;54238;52.278;21.056;2022-11-15T08:43:05;100457.80;;;6.70
67353;BMP180;54238;52.278;21.056;2022-11-15T08:45:34;100454.00;;;6.70
67353;BMP180;54238;52.278;21.056;2022-11-15T08:48:02;100452.40;;;6.80
67353;BMP180;54238;52.278;21.056;2022-11-15T08:50:32;100455.00;;;6.80
67353;BMP180;54238;52.278;21.056;2022-11-15T08:53:10;100458.80;;;6.80
67353;BMP180;54238;52.278;21.056;2022-11-15T08:55:40;100450.00;;;6.86
67353;BMP180;54238;52.278;21.056;2022-11-15T08:58:07;100457.60;;;6.90
67353;BMP180;54238;52.278;21.056;2022-11-15T09:00:37;100459.80;;;6.90
67353;BMP180;54238;52.278;21.056;2022-11-15T09:03:06;100455.40;;;6.90
67353;BMP180;54238;52.278;21.056;2022-11-15T09:05:38;100450.80;;;6.98
67353;BMP180;54238;52.278;21.056;2022-11-15T09:08:05;100447.20;;;7.00
67353;BMP180;54238;52.278;21.056;2022-11-15T09:10:34;100445.00;;;7.00
67353;BMP180;54238;52.278;21.056;2022-11-15T09:13:03;100443.20;;;7.10
67353;BMP180;54238;52.278;21.056;2022-11-15T09:15:30;100436.60;;;7.10
67353;BMP180;54238;52.278;21.056;2022-11-15T09:18:00;100435.80;;;7.14
67353;BMP180;54238;52.278;21.056;2022-11-15T09:20:27;100432.20;;;7.20
67353;BMP180;54238;52.278;21.056;2022-11-15T09:22:54;100430.20;;;7.10
67353;BMP180;54238;52.278;21.056;2022-11-15T09:25:21;100427.60;;;7.10
67353;BMP180;54238;52.278;21.056;2022-11-15T09:27:49;100420.20;;;7.10
67353;BMP180;54238;52.278;21.056;2022-11-15T09:30:19;100419.20;;;7.10
67353;BMP180;54238;52.278;21.056;2022-11-15T09:32:49;100414.60;;;7.12
67353;BMP180;54238;52.278;21.056;2022-11-15T09:35:21;100405.40;;;7.20
67353;BMP180;54238;52.278;21.056;2022-11-15T09:37:48;100407.80;;;7.20
67353;BMP180;54238;52.278;21.056;2022-11-15T09:40:24;100410.40;;;7.20
67353;BMP180;54238;52.278;21.056;2022-11-15T09:48:55;100403.60;;;7.30
67353;BMP180;54238;52.278;21.056;2022-11-15T09:56:50;100392.00;;;7.26
67353;BMP180;54238;52.278;21.056;2022-11-15T10:03:03;100391.20;;;7.30
67353;BMP180;54238;52.278;21.056;2022-11-15T10:05:42;100386.80;;;7.40
67353;BMP180;54238;52.278;21.056;2022-11-15T10:11:11;100389.00;;;7.40
67353;BMP180;54238;52.278;21.056;2022-11-15T10:13:45;100377.60;;;7.30
67353;BMP180;54238;52.278;21.056;2022-11-15T10:22:43;100371.20;;;7.30
67353;BMP180;54238;52.278;21.056;2022-11-15T10:25:23;100377.20;;;7.30
67353;BMP180;54238;52.278;21.056;2022-11-15T10:27:55;100374.60;;;7.40
67353;BMP180;54238;52.278;21.056;2022-11-15T10:49:33;100352.40;;;7.60
67353;BMP180;54238;52.278;21.056;2022-11-15T10:54:50;100344.20;;;7.60
67353;BMP180;54238;52.278;21.056;2022-11-15T11:06:16;100339.00;;;7.70
67353;BMP180;54238;52.278;21.056;2022-11-15T11:09:04;100335.20;;;7.74
67353;BMP180;54238;52.278;21.056;2022-11-15T11:11:47;100335.40;;;7.80
67353;BMP180;54238;52.278;21.056;2022-11-15T11:14:26;100335.20;;;7.80
67353;BMP180;54238;52.278;21.056;2022-11-15T11:17:18;100335.80;;;7.88
67353;BMP180;54238;52.278;21.056;2022-11-15T11:23:15;100340.80;;;7.90
67353;BMP180;54238;52.278;21.056;2022-11-15T11:31:50;100325.20;;;7.84
67353;BMP180;54238;52.278;21.056;2022-11-15T11:38:11;100315.20;;;7.70
67353;BMP180;54238;52.278;21.056;2022-11-15T11:40:55;100309.20;;;7.70
67353;BMP180;54238;52.278;21.056;2022-11-15T11:47:11;100309.80;;;7.70
67353;BMP180;54238;52.278;21.056;2022-11-15T11:49:42;100302.80;;;7.70
67353;BMP180;54238;52.278;21.056;2022-11-15T11:52:29;100295.80;;;7.70
67353;BMP180;54238;52.278;21.056;2022-11-15T11:55:15;100302.20;;;7.70
67353;BMP180;54238;52.278;21.056;2022-11-15T11:58:06;100291.80;;;7.70
67353;BMP180;54238;52.278;21.056;2022-11-15T12:00:47;100286.40;;;7.70
67353;BMP180;54238;52.278;21.056;2022-11-15T12:03:36;100282.00;;;7.78
67353;BMP180;54238;52.278;21.056;2022-11-15T12:06:23;100278.20;;;7.80
67353;BMP180;54238;52.278;21.056;2022-11-15T12:09:00;100277.40;;;7.88
67353;BMP180;54238;52.278;21.056;2022-11-15T12:11:50;100276.80;;;7.90
67353;BMP180;54238;52.278;21.056;2022-11-15T12:14:42;100271.60;;;7.90
67353;BMP180;54238;52.278;21.056;2022-11-15T12:17:11;100272.20;;;7.90
67353;BMP180;54238;52.278;21.056;2022-11-15T12:19:43;100273.60;;;7.80
67353;BMP180;54238;52.278;21.056;2022-11-15T12:22:20;100266.20;;;7.90
67353;BMP180;54238;52.278;21.056;2022-11-15T12:28:15;100261.80;;;7.84
67353;BMP180;54238;52.278;21.056;2022-11-15T12:31:03;100263.60;;;7.80
67353;BMP180;54238;52.278;21.056;2022-11-15T12:33:41;100256.80;;;7.80
67353;BMP180;54238;52.278;21.056;2022-11-15T12:36:30;100255.60;;;7.70
67353;BMP180;54238;52.278;21.056;2022-11-15T12:39:11;100249.40;;;7.70
67353;BMP180;54238;52.278;21.056;2022-11-15T12:47:26;100246.20;;;7.80
67353;BMP180;54238;52.278;21.056;2022-11-15T12:49:56;100243.20;;;7.86
67353;BMP180;54238;52.278;21.056;2022-11-15T12:52:28;100245.00;;;7.90
67353;BMP180;54238;52.278;21.056;2022-11-15T12:55:02;100249.00;;;7.90
67353;BMP180;54238;52.278;21.056;2022-11-15T12:57:36;100253.00;;;7.90
67353;BMP180;54238;52.278;21.056;2022-11-15T13:03:27;100250.20;;;7.90
67353;BMP180;54238;52.278;21.056;2022-11-15T13:06:00;100236.40;;;7.90
67353;BMP180;54238;52.278;21.056;2022-11-15T13:08:45;100233.00;;;8.00
67353;BMP180;54238;52.278;21.056;2022-11-15T13:11:45;100236.20;;;8.00
67353;BMP180;54238;52.278;21.056;2022-11-15T13:14:44;100235.40;;;8.00
67353;BMP180;54238;52.278;21.056;2022-11-15T13:17:31;100240.20;;;8.02
67353;BMP180;54238;52.278;21.056;2022-11-15T13:23:09;100231.00;;;8.00
67353;BMP180;54238;52.278;21.056;2022-11-15T13:25:52;100228.20;;;8.00
67353;BMP180;54238;52.278;21.056;2022-11-15T13:28:32;100224.40;;;8.00
67353;BMP180;54238;52.278;21.056;2022-11-15T13:33:55;100217.00;;;8.00
67353;BMP180;54238;52.278;21.056;2022-11-15T13:36:32;100217.00;;;8.02
67353;BMP180;54238;52.278;21.056;2022-11-15T13:39:11;100210.00;;;8.00
67353;BMP180;54238;52.278;21.056;2022-11-15T13:41:51;100209.60;;;8.00
67353;BMP180;54238;52.278;21.056;2022-11-15T13:44:29;100212.40;;;8.02
67353;BMP180;54238;52.278;21.056;2022-11-15T13:47:19;100204.60;;;8.10
67353;BMP180;54238;52.278;21.056;2022-11-15T13:49:46;100204.00;;;8.10
67353;BMP180;54238;52.278;21.056;2022-11-15T13:52:15;100197.20;;;8.10
67353;BMP180;54238;52.278;21.056;2022-11-15T13:55:12;100200.60;;;8.10
67353;BMP180;54238;52.278;21.056;2022-11-15T13:57:46;100201.80;;;8.18
67353;BMP180;54238;52.278;21.056;2022-11-15T14:00:46;100202.20;;;8.20
67353;BMP180;54238;52.278;21.056;2022-11-15T14:03:27;100200.40;;;8.20
67353;BMP180;54238;52.278;21.056;2022-11-15T14:06:20;100200.60;;;8.20
67353;BMP180;54238;52.278;21.056;2022-11-15T14:11:34;100201.40;;;8.10
67353;BMP180;54238;52.278;21.056;2022-11-15T14:16:47;100190.60;;;8.10
67353;BMP180;54238;52.278;21.056;2022-11-15T14:19:38;100190.60;;;8.10
67353;BMP180;54238;52.278;21.056;2022-11-15T14:22:16;100191.60;;;8.10
67353;BMP180;54238;52.278;21.056;2022-11-15T14:25:06;100192.20;;;8.00
67353;BMP180;54238;52.278;21.056;2022-11-15T14:27:36;100187.80;;;8.00
67353;BMP180;54238;52.278;21.056;2022-11-15T14:30:09;100191.40;;;7.98
67353;BMP180;54238;52.278;21.056;2022-11-15T14:32:50;100191.80;;;7.90
67353;BMP180;54238;52.278;21.056;2022-11-15T14:35:23;100186.40;;;7.90
67353;BMP180;54238;52.278;21.056;2022-11-15T14:37:58;100186.80;;;7.80
67353;BMP180;54238;52.278;21.056;2022-11-15T14:40:26;100184.80;;;7.80
67353;BMP180;54238;52.278;21.056;2022-11-15T14:42:53;100182.60;;;7.80
67353;BMP180;54238;52.278;21.056;2022-11-15T14:45:26;100187.00;;;7.80
67353;BMP180;54238;52.278;21.056;2022-11-15T14:47:54;100182.00;;;7.80
67353;BMP180;54238;52.278;21.056;2022-11-15T14:50:21;100179.60;;;7.80
67353;BMP180;54238;52.278;21.056;2022-11-15T14:52:51;100184.00;;;7.80
67353;BMP180;54238;52.278;21.056;2022-11-15T14:55:21;100182.00;;;7.80
67353;BMP180;54238;52.278;21.056;2022-11-15T14:57:52;100182.80;;;7.70
67353;BMP180;54238;52.278;21.056;2022-11-15T15:00:22;100182.80;;;7.70
67353;BMP180;54238;52.278;21.056;2022-11-15T15:02:53;100175.40;;;7.70
67353;BMP180;54238;52.278;21.056;2022-11-15T15:08:11;100181.20;;;7.64
67353;BMP180;54238;52.278;21.056;2022-11-15T15:10:44;100179.20;;;7.60
67353;BMP180;54238;52.278;21.056;2022-11-15T15:13:23;100169.60;;;7.60
67353;BMP180;54238;52.278;21.056;2022-11-15T15:15:55;100169.40;;;7.60
67353;BMP180;54238;52.278;21.056;2022-11-15T15:18:23;100173.80;;;7.60
67353;BMP180;54238;52.278;21.056;2022-11-15T15:20:58;100178.40;;;7.54
67353;BMP180;54238;52.278;21.056;2022-11-15T15:23:36;100172.40;;;7.50
67353;BMP180;54238;52.278;21.056;2022-11-15T15:26:07;100168.60;;;7.50
67353;BMP180;54238;52.278;21.056;2022-11-15T15:28:34;100173.80;;;7.50
67353;BMP180;54238;52.278;21.056;2022-11-15T15:31:02;100178.60;;;7.42
67353;BMP180;54238;52.278;21.056;2022-11-15T15:33:29;100172.20;;;7.40
67353;BMP180;54238;52.278;21.056;2022-11-15T15:35:56;100169.60;;;7.40
67353;BMP180;54238;52.278;21.056;2022-11-15T15:38:27;100169.20;;;7.40
67353;BMP180;54238;52.278;21.056;2022-11-15T15:40:54;100169.80;;;7.40
67353;BMP180;54238;52.278;21.056;2022-11-15T15:43:24;100169.80;;;7.32
67353;BMP180;54238;52.278;21.056;2022-11-15T15:45:56;100165.60;;;7.30
67353;BMP180;54238;52.278;21.056;2022-11-15T15:48:25;100162.60;;;7.30
67353;BMP180;54238;52.278;21.056;2022-11-15T15:50:54;100163.20;;;7.30
67353;BMP180;54238;52.278;21.056;2022-11-15T15:53:24;100164.00;;;7.30
67353;BMP180;54238;52.278;21.056;2022-11-15T15:55:51;100155.20;;;7.30
67353;BMP180;54238;52.278;21.056;2022-11-15T15:58:18;100157.60;;;7.30
67353;BMP180;54238;52.278;21.056;2022-11-15T16:00:47;100162.40;;;7.20
67353;BMP180;54238;52.278;21.056;2022-11-15T16:03:16;100156.40;;;7.20
67353;BMP180;54238;52.278;21.056;2022-11-15T16:05:51;100153.00;;;7.20
67353;BMP180;54238;52.278;21.056;2022-11-15T16:08:25;100149.00;;;7.20
67353;BMP180;54238;52.278;21.056;2022-11-15T16:10:56;100144.40;;;7.20
67353;BMP180;54238;52.278;21.056;2022-11-15T16:13:30;100145.60;;;7.20
67353;BMP180;54238;52.278;21.056;2022-11-15T16:15:59;100150.40;;;7.20
67353;BMP180;54238;52.278;21.056;2022-11-15T16:18:29;100155.60;;;7.30
67353;BMP180;54238;52.278;21.056;2022-11-15T16:20:58;100150.40;;;7.30
67353;BMP180;54238;52.278;21.056;2022-11-15T16:23:27;100148.40;;;7.30
67353;BMP180;54238;52.278;21.056;2022-11-15T16:25:55;100144.80;;;7.40
67353;BMP180;54238;52.278;21.056;2022-11-15T16:31:09;100144.00;;;7.32
67353;BMP180;54238;52.278;21.056;2022-11-15T16:33:39;100144.00;;;7.40
67353;BMP180;54238;52.278;21.056;2022-11-15T16:36:23;100144.20;;;7.40
67353;BMP180;54238;52.278;21.056;2022-11-15T16:38:52;100141.00;;;7.40
67353;BMP180;54238;52.278;21.056;2022-11-15T16:41:25;100147.20;;;7.40
67353;BMP180;54238;52.278;21.056;2022-11-15T16:43:55;100145.60;;;7.40
67353;BMP180;54238;52.278;21.056;2022-11-15T16:46:27;100149.00;;;7.40
67353;BMP180;54238;52.278;21.056;2022-11-15T16:49:01;100145.00;;;7.40
67353;BMP180;54238;52.278;21.056;2022-11-15T16:51:33;100143.00;;;7.40